createdAt,value
2022-12-18T00:01:50.270Z,58.66
2022-12-18T00:02:50.278Z,58.51
2022-12-18T00:03:50.322Z,58.51
2022-12-18T00:04:50.199Z,58.24
2022-12-18T00:05:51.864Z,58.16
2022-12-18T00:06:50.236Z,58.19
2022-12-18T00:07:50.266Z,58.15
2022-12-18T00:09:50.346Z,58.16
2022-12-18T00:10:50.174Z,58.35
2022-12-18T00:12:50.187Z,58.46
2022-12-18T00:13:50.201Z,58.42
2022-12-18T00:14:50.256Z,58.21
2022-12-18T00:15:50.321Z,58.21
2022-12-18T00:16:50.254Z,58.48
2022-12-18T00:17:50.191Z,58.48
2022-12-18T00:19:50.281Z,58.58
2022-12-18T00:20:50.243Z,58.53
2022-12-18T00:21:50.220Z,58.63
2022-12-18T00:22:50.194Z,58.63
2022-12-18T00:23:50.241Z,58.61
2022-12-18T00:24:50.277Z,58.22
2022-12-18T00:25:50.213Z,58.22
2022-12-18T00:26:50.223Z,57.89
2022-12-18T00:27:50.252Z,57.89
2022-12-18T00:30:50.265Z,57.77
2022-12-18T00:31:50.342Z,57.77
2022-12-18T00:32:50.299Z,57.71
2022-12-18T00:33:54.076Z,57.69
2022-12-18T00:35:50.246Z,57.93
2022-12-18T00:36:50.283Z,58.03
2022-12-18T00:37:50.275Z,57.81
2022-12-18T00:38:50.250Z,57.72
2022-12-18T00:39:50.276Z,57.87
2022-12-18T00:41:50.260Z,57.65
2022-12-18T00:42:52.113Z,57.89
2022-12-18T00:44:50.255Z,57.95
2022-12-18T00:45:50.416Z,57.95
2022-12-18T00:46:50.294Z,57.80
2022-12-18T00:47:50.312Z,57.86
2022-12-18T00:48:50.285Z,57.86
2022-12-18T00:49:50.304Z,57.95
2022-12-18T00:50:50.301Z,57.87
2022-12-18T00:51:50.300Z,57.89
2022-12-18T00:52:50.338Z,57.89
2022-12-18T00:53:50.318Z,57.89
2022-12-18T00:54:50.314Z,58.09
2022-12-18T00:55:50.307Z,58.09
2022-12-18T00:56:50.327Z,58.25
2022-12-18T00:57:50.326Z,58.37
2022-12-18T00:58:50.287Z,58.37
2022-12-18T00:59:50.324Z,58.31
2022-12-18T01:00:50.476Z,58.12
2022-12-18T01:01:50.464Z,58.12
2022-12-18T01:02:50.520Z,58.25
2022-12-18T01:03:50.294Z,58.25
2022-12-18T01:04:50.298Z,58.12
2022-12-18T01:05:50.384Z,58.22
2022-12-18T01:06:50.296Z,58.22
2022-12-18T01:07:50.306Z,58.12
2022-12-18T01:08:50.342Z,58.32
2022-12-18T01:09:50.356Z,58.26
2022-12-18T01:10:50.405Z,58.10
2022-12-18T01:12:50.331Z,58.09
2022-12-18T01:13:50.407Z,57.90
2022-12-18T01:15:50.325Z,58.08
2022-12-18T01:16:50.402Z,58.08
2022-12-18T01:17:50.369Z,58.13
2022-12-18T01:18:50.388Z,58.19
2022-12-18T01:19:52.404Z,58.05
2022-12-18T01:20:50.377Z,58.10
2022-12-18T01:21:50.391Z,58.00
2022-12-18T01:25:50.439Z,58.00
2022-12-18T01:26:50.384Z,58.00
2022-12-18T01:28:50.427Z,57.99
2022-12-18T01:32:50.417Z,57.96
2022-12-18T01:33:50.406Z,57.91
2022-12-18T01:34:50.441Z,57.93
2022-12-18T01:35:50.406Z,57.93
2022-12-18T01:39:50.418Z,58.06
2022-12-18T01:40:50.464Z,57.87
2022-12-18T01:41:50.455Z,57.88
2022-12-18T01:43:50.445Z,57.79
2022-12-18T01:46:50.462Z,57.79
2022-12-18T01:47:50.382Z,57.79
2022-12-18T01:48:50.467Z,57.81
2022-12-18T01:50:50.467Z,57.86
2022-12-18T01:53:50.413Z,57.84
2022-12-18T01:54:50.488Z,58.04
2022-12-18T01:55:50.461Z,58.04
2022-12-18T01:56:52.630Z,57.96
2022-12-18T01:58:50.434Z,57.90
2022-12-18T01:59:50.475Z,57.89
2022-12-18T02:02:50.578Z,57.94
2022-12-18T02:04:50.511Z,57.91
2022-12-18T02:06:50.484Z,57.75
2022-12-18T02:09:50.543Z,57.82
2022-12-18T02:11:50.474Z,57.87
2022-12-18T02:12:50.476Z,57.77
2022-12-18T02:14:50.500Z,57.60
2022-12-18T02:16:50.564Z,57.53
2022-12-18T02:19:50.551Z,57.66
2022-12-18T02:21:50.544Z,57.51
2022-12-18T02:22:50.557Z,57.87
2022-12-18T02:23:50.488Z,57.63
2022-12-18T02:24:50.494Z,57.65
2022-12-18T02:25:50.508Z,57.80
2022-12-18T02:26:50.492Z,57.80
2022-12-18T02:27:50.502Z,57.41
2022-12-18T02:28:50.528Z,57.41
2022-12-18T02:29:55.980Z,57.43
2022-12-18T02:30:50.654Z,57.60
2022-12-18T02:32:50.569Z,57.88
2022-12-18T02:33:52.870Z,57.15
2022-12-18T02:34:50.552Z,57.15
2022-12-18T02:35:50.532Z,57.41
2022-12-18T02:36:50.547Z,57.54
2022-12-18T02:37:50.560Z,58.10
2022-12-18T02:38:50.535Z,57.95
2022-12-18T02:40:50.598Z,58.33
2022-12-18T02:41:50.534Z,58.28
2022-12-18T02:42:50.565Z,58.34
2022-12-18T02:43:50.574Z,58.34
2022-12-18T02:45:50.708Z,57.66
2022-12-18T02:46:50.600Z,57.80
2022-12-18T02:47:50.594Z,57.67
2022-12-18T02:49:50.564Z,57.82
2022-12-18T02:50:50.600Z,58.21
2022-12-18T02:51:50.585Z,57.97
2022-12-18T02:52:50.625Z,57.92
2022-12-18T02:53:50.613Z,57.83
2022-12-18T02:54:51.444Z,57.93
2022-12-18T02:57:50.570Z,57.97
2022-12-18T02:58:50.627Z,57.83
2022-12-18T03:00:50.705Z,57.81
2022-12-18T03:01:50.729Z,57.81
2022-12-18T03:02:50.724Z,57.95
2022-12-18T03:03:50.607Z,57.89
2022-12-18T03:04:50.610Z,57.89
2022-12-18T03:05:50.618Z,58.07
2022-12-18T03:07:50.625Z,58.27
2022-12-18T03:08:50.680Z,58.17
2022-12-18T03:09:50.630Z,58.17
2022-12-18T03:10:53.075Z,57.73
2022-12-18T03:11:50.608Z,57.75
2022-12-18T03:13:50.668Z,57.80
2022-12-18T03:14:50.616Z,57.80
2022-12-18T03:15:50.601Z,57.82
2022-12-18T03:16:50.635Z,57.93
2022-12-18T03:17:50.606Z,57.92
2022-12-18T03:18:50.689Z,57.87
2022-12-18T03:19:50.660Z,57.87
2022-12-18T03:20:50.627Z,58.02
2022-12-18T03:25:50.650Z,57.94
2022-12-18T03:27:50.674Z,58.10
2022-12-18T03:28:50.691Z,58.05
2022-12-18T03:29:50.647Z,57.96
2022-12-18T03:31:50.680Z,57.94
2022-12-18T03:34:50.649Z,57.96
2022-12-18T03:37:50.715Z,57.96
2022-12-18T03:38:50.730Z,58.07
2022-12-18T03:39:50.673Z,58.07
2022-12-18T03:40:50.717Z,57.91
2022-12-18T03:43:50.760Z,58.10
2022-12-18T03:45:50.712Z,57.88
2022-12-18T03:46:50.747Z,57.93
2022-12-18T03:48:50.719Z,57.99
2022-12-18T03:49:50.699Z,58.00
2022-12-18T03:52:50.734Z,58.07
2022-12-18T03:53:50.780Z,57.93
2022-12-18T03:54:50.733Z,57.74
2022-12-18T03:55:50.756Z,57.55
2022-12-18T03:56:50.782Z,57.75
2022-12-18T03:57:50.757Z,57.75
2022-12-18T03:58:50.796Z,57.69
2022-12-18T03:59:50.711Z,57.69
2022-12-18T04:01:50.913Z,57.92
2022-12-18T04:02:50.764Z,58.18
2022-12-18T04:03:50.823Z,58.04
2022-12-18T04:05:50.749Z,58.00
2022-12-18T04:06:50.757Z,57.85
2022-12-18T04:07:50.727Z,57.85
2022-12-18T04:08:50.746Z,57.97
2022-12-18T04:09:50.772Z,57.97
2022-12-18T04:11:50.823Z,57.46
2022-12-18T04:12:50.748Z,57.46
2022-12-18T04:13:50.733Z,57.72
2022-12-18T04:14:50.796Z,57.68
2022-12-18T04:15:50.866Z,57.73
2022-12-18T04:17:50.760Z,57.63
2022-12-18T04:18:50.760Z,57.54
2022-12-18T04:19:50.793Z,57.86
2022-12-18T04:20:50.792Z,57.86
2022-12-18T04:21:50.783Z,57.74
2022-12-18T04:22:50.800Z,57.74
2022-12-18T04:23:50.811Z,57.91
2022-12-18T04:24:53.581Z,57.78
2022-12-18T04:26:50.822Z,57.62
2022-12-18T04:27:50.786Z,57.86
2022-12-18T04:28:50.824Z,57.86
2022-12-18T04:29:50.857Z,57.69
2022-12-18T04:30:50.911Z,57.83
2022-12-18T04:31:50.874Z,58.03
2022-12-18T04:32:52.367Z,57.99
2022-12-18T04:33:50.814Z,57.99
2022-12-18T04:34:50.866Z,57.85
2022-12-18T04:35:50.806Z,57.80
2022-12-18T04:36:50.827Z,57.91
2022-12-18T04:37:50.796Z,57.91
2022-12-18T04:38:50.838Z,58.06
2022-12-18T04:39:50.844Z,58.09
2022-12-18T04:40:50.859Z,57.90
2022-12-18T04:41:50.882Z,57.66
2022-12-18T04:42:50.824Z,57.66
2022-12-18T04:43:50.861Z,57.95
2022-12-18T04:44:50.855Z,57.95
2022-12-18T04:45:50.873Z,57.58
2022-12-18T04:48:50.843Z,57.95
2022-12-18T04:49:50.895Z,57.94
2022-12-18T04:50:50.847Z,57.94
2022-12-18T04:51:50.917Z,57.31
2022-12-18T04:54:50.937Z,57.71
2022-12-18T04:55:50.868Z,57.71
2022-12-18T04:56:50.916Z,57.49
2022-12-18T04:57:50.877Z,57.49
2022-12-18T04:59:50.957Z,57.77
2022-12-18T05:00:50.856Z,57.22
2022-12-18T05:01:53.923Z,57.02
2022-12-18T05:02:51.073Z,57.02
2022-12-18T05:03:50.949Z,56.96
2022-12-18T05:04:50.932Z,57.03
2022-12-18T05:05:50.876Z,57.03
2022-12-18T05:06:50.944Z,58.33
2022-12-18T05:07:50.923Z,58.64
2022-12-18T05:08:50.918Z,58.64
2022-12-18T05:09:50.948Z,59.13
2022-12-18T05:10:50.879Z,59.13
2022-12-18T05:12:50.877Z,59.30
2022-12-18T05:13:50.909Z,59.30
2022-12-18T05:14:50.978Z,59.28
2022-12-18T05:15:51.084Z,59.43
2022-12-18T05:16:50.923Z,59.43
2022-12-18T05:17:50.955Z,59.80
2022-12-18T05:18:50.939Z,59.80
2022-12-18T05:19:50.970Z,59.91
2022-12-18T05:20:50.942Z,59.91
2022-12-18T05:21:50.901Z,60.33
2022-12-18T05:22:50.974Z,60.42
2022-12-18T05:23:50.902Z,60.42
2022-12-18T05:24:50.955Z,60.29
2022-12-18T05:25:50.935Z,60.23
2022-12-18T05:27:50.991Z,59.92
2022-12-18T05:28:50.943Z,59.97
2022-12-18T05:29:50.963Z,59.97
2022-12-18T05:30:50.987Z,59.77
2022-12-18T05:31:50.968Z,59.77
2022-12-18T05:34:50.934Z,59.91
2022-12-18T05:36:50.952Z,59.89
2022-12-18T05:37:50.986Z,59.69
2022-12-18T05:38:54.104Z,59.62
2022-12-18T05:39:50.939Z,59.75
2022-12-18T05:40:51.030Z,59.63
2022-12-18T05:41:50.992Z,59.63
2022-12-18T05:42:50.995Z,59.63
2022-12-18T05:43:51.013Z,59.99
2022-12-18T05:44:50.984Z,59.99
2022-12-18T05:45:51.009Z,59.98
2022-12-18T05:46:51.031Z,59.98
2022-12-18T05:47:51.032Z,59.88
2022-12-18T05:48:51.004Z,59.88
2022-12-18T05:49:50.983Z,59.71
2022-12-18T05:50:51.046Z,59.86
2022-12-18T05:51:50.975Z,59.86
2022-12-18T05:52:51.016Z,59.73
2022-12-18T05:53:51.021Z,59.73
2022-12-18T05:54:51.021Z,60.01
2022-12-18T05:55:51.021Z,60.01
2022-12-18T05:56:51.031Z,59.97
2022-12-18T05:58:51.031Z,59.67
2022-12-18T05:59:51.029Z,59.92
2022-12-18T06:00:51.077Z,59.71
2022-12-18T06:01:51.154Z,59.71
2022-12-18T06:02:51.205Z,59.43
2022-12-18T06:03:51.078Z,59.47
2022-12-18T06:04:51.040Z,59.47
2022-12-18T06:05:51.089Z,59.73
2022-12-18T06:06:51.027Z,59.69
2022-12-18T06:07:51.106Z,59.24
2022-12-18T06:08:51.057Z,59.45
2022-12-18T06:09:51.041Z,59.45
2022-12-18T06:10:51.091Z,59.91
2022-12-18T06:11:51.015Z,59.91
2022-12-18T06:12:51.012Z,60.07
2022-12-18T06:13:56.158Z,60.25
2022-12-18T06:14:51.071Z,60.40
2022-12-18T06:15:54.433Z,60.25
2022-12-18T06:16:51.068Z,60.05
2022-12-18T06:17:51.033Z,59.99
2022-12-18T06:18:51.063Z,59.99
2022-12-18T06:19:51.038Z,60.01
2022-12-18T06:20:51.065Z,60.20
2022-12-18T06:21:51.022Z,60.20
2022-12-18T06:22:51.110Z,59.58
2022-12-18T06:23:51.084Z,59.58
2022-12-18T06:24:51.138Z,59.45
2022-12-18T06:25:51.118Z,59.52
2022-12-18T06:26:51.097Z,59.52
2022-12-18T06:27:51.057Z,59.36
2022-12-18T06:28:51.092Z,59.17
2022-12-18T06:29:51.105Z,59.20
2022-12-18T06:30:51.129Z,59.58
2022-12-18T06:31:51.259Z,59.42
2022-12-18T06:32:56.373Z,59.59
2022-12-18T06:33:51.098Z,59.76
2022-12-18T06:34:51.071Z,59.71
2022-12-18T06:35:51.108Z,59.71
2022-12-18T06:36:51.066Z,59.82
2022-12-18T06:37:51.147Z,60.03
2022-12-18T06:38:51.120Z,59.77
2022-12-18T06:39:51.134Z,60.06
2022-12-18T06:40:51.120Z,60.53
2022-12-18T06:41:51.081Z,60.53
2022-12-18T06:42:51.154Z,60.92
2022-12-18T06:43:52.244Z,60.76
2022-12-18T06:44:51.101Z,60.76
2022-12-18T06:45:51.170Z,60.72
2022-12-18T06:46:51.107Z,59.95
2022-12-18T06:47:51.137Z,59.77
2022-12-18T06:48:51.147Z,59.48
2022-12-18T06:49:51.137Z,59.48
2022-12-18T06:50:51.142Z,59.32
2022-12-18T06:51:51.110Z,59.00
2022-12-18T06:52:54.635Z,59.23
2022-12-18T06:53:51.162Z,59.23
2022-12-18T06:54:51.131Z,59.09
2022-12-18T06:55:51.150Z,59.07
2022-12-18T06:57:51.127Z,59.14
2022-12-18T06:58:51.164Z,59.34
2022-12-18T06:59:51.136Z,59.34
2022-12-18T07:00:51.273Z,59.68
2022-12-18T07:01:51.327Z,59.67
2022-12-18T07:02:51.416Z,59.67
2022-12-18T07:03:51.212Z,59.79
2022-12-18T07:04:51.194Z,59.38
2022-12-18T07:05:51.193Z,59.38
2022-12-18T07:07:51.185Z,59.14
2022-12-18T07:08:51.232Z,59.21
2022-12-18T07:10:55.903Z,59.51
2022-12-18T07:11:51.212Z,59.40
2022-12-18T07:12:51.195Z,59.37
2022-12-18T07:13:51.205Z,59.43
2022-12-18T07:14:51.209Z,59.43
2022-12-18T07:15:51.263Z,59.35
2022-12-18T07:16:51.310Z,59.11
2022-12-18T07:17:51.172Z,59.11
2022-12-18T07:18:51.240Z,59.65
2022-12-18T07:19:51.180Z,59.65
2022-12-18T07:20:51.213Z,60.25
2022-12-18T07:21:51.223Z,60.52
2022-12-18T07:22:56.143Z,60.62
2022-12-18T07:23:51.275Z,60.79
2022-12-18T07:24:51.224Z,60.79
2022-12-18T07:25:51.235Z,61.02
2022-12-18T07:26:51.255Z,60.97
2022-12-18T07:27:51.209Z,60.62
2022-12-18T07:28:51.243Z,60.80
2022-12-18T07:29:54.867Z,60.55
2022-12-18T07:30:51.224Z,60.35
2022-12-18T07:31:51.342Z,59.93
2022-12-18T07:32:51.212Z,59.90
2022-12-18T07:33:51.261Z,59.90
2022-12-18T07:34:51.247Z,59.96
2022-12-18T07:35:51.217Z,59.96
2022-12-18T07:36:51.289Z,60.14
2022-12-18T07:37:51.254Z,59.90
2022-12-18T07:38:51.276Z,59.87
2022-12-18T07:39:51.310Z,59.99
2022-12-18T07:40:51.283Z,59.89
2022-12-18T07:41:51.291Z,59.96
2022-12-18T07:42:51.236Z,59.92
2022-12-18T07:43:51.249Z,60.11
2022-12-18T07:44:51.315Z,60.33
2022-12-18T07:46:51.337Z,60.30
2022-12-18T07:47:51.252Z,60.30
2022-12-18T07:48:51.299Z,60.14
2022-12-18T07:50:51.300Z,60.39
2022-12-18T07:51:51.311Z,60.25
2022-12-18T07:52:51.303Z,60.10
2022-12-18T07:53:52.277Z,60.10
2022-12-18T07:54:51.290Z,59.40
2022-12-18T07:56:18.354Z,59.40
2022-12-18T07:57:54.145Z,60.32
2022-12-18T07:58:51.317Z,60.32
2022-12-18T07:59:51.309Z,60.31
2022-12-18T08:00:51.300Z,60.27
2022-12-18T08:01:51.422Z,60.22
2022-12-18T08:02:51.411Z,59.96
2022-12-18T08:03:52.108Z,59.21
2022-12-18T08:05:51.341Z,58.79
2022-12-18T08:06:55.166Z,59.18
2022-12-18T08:07:51.342Z,59.18
2022-12-18T08:08:51.331Z,58.94
2022-12-18T08:09:51.423Z,59.00
2022-12-18T08:10:51.298Z,59.33
2022-12-18T08:11:51.348Z,59.33
2022-12-18T08:12:51.404Z,59.56
2022-12-18T08:13:51.348Z,59.43
2022-12-18T08:14:51.348Z,59.10
2022-12-18T08:15:51.356Z,59.10
2022-12-18T08:16:51.377Z,58.98
2022-12-18T08:17:51.355Z,58.85
2022-12-18T08:18:51.311Z,58.85
2022-12-18T08:19:51.380Z,58.81
2022-12-18T08:20:51.382Z,58.55
2022-12-18T08:21:51.373Z,58.45
2022-12-18T08:22:51.383Z,58.14
2022-12-18T08:23:51.801Z,58.15
2022-12-18T08:24:51.410Z,57.89
2022-12-18T08:25:51.369Z,57.71
2022-12-18T08:28:51.349Z,57.78
2022-12-18T08:29:51.438Z,57.55
2022-12-18T08:31:51.428Z,57.98
2022-12-18T08:32:51.429Z,57.85
2022-12-18T08:33:51.419Z,57.75
2022-12-18T08:34:51.399Z,57.85
2022-12-18T08:36:51.372Z,58.03
2022-12-18T08:37:51.397Z,57.94
2022-12-18T08:38:51.423Z,57.94
2022-12-18T08:39:51.393Z,58.11
2022-12-18T08:40:51.378Z,58.19
2022-12-18T08:41:51.386Z,58.09
2022-12-18T08:42:51.409Z,58.09
2022-12-18T08:43:55.386Z,58.14
2022-12-18T08:44:51.374Z,58.14
2022-12-18T08:45:51.457Z,57.80
2022-12-18T08:46:51.422Z,58.08
2022-12-18T08:47:51.468Z,58.03
2022-12-18T08:48:51.454Z,57.78
2022-12-18T08:49:51.439Z,57.78
2022-12-18T08:50:51.418Z,57.50
2022-12-18T08:51:51.387Z,57.50
2022-12-18T08:52:51.464Z,57.04
2022-12-18T08:53:51.435Z,57.04
2022-12-18T08:54:51.442Z,57.44
2022-12-18T08:55:51.493Z,57.71
2022-12-18T08:56:51.435Z,57.77
2022-12-18T08:57:51.432Z,57.45
2022-12-18T08:58:51.449Z,57.45
2022-12-18T08:59:51.408Z,57.27
2022-12-18T09:00:51.681Z,56.76
2022-12-18T09:01:51.531Z,56.76
2022-12-18T09:02:51.739Z,56.92
2022-12-18T09:03:51.497Z,56.93
2022-12-18T09:04:57.122Z,56.93
2022-12-18T09:05:51.482Z,56.70
2022-12-18T09:07:51.468Z,57.10
2022-12-18T09:08:51.510Z,57.18
2022-12-18T09:09:51.459Z,56.75
2022-12-18T09:10:51.503Z,56.58
2022-12-18T09:11:51.525Z,56.62
2022-12-18T09:12:51.481Z,56.80
2022-12-18T09:13:51.457Z,56.64
2022-12-18T09:14:51.474Z,56.64
2022-12-18T09:15:51.480Z,55.65
2022-12-18T09:16:51.509Z,56.28
2022-12-18T09:17:51.517Z,56.88
2022-12-18T09:18:51.526Z,56.39
2022-12-18T09:19:51.475Z,57.26
2022-12-18T09:21:51.521Z,56.93
2022-12-18T09:22:51.489Z,56.92
2022-12-18T09:23:51.503Z,56.92
2022-12-18T09:24:51.533Z,56.88
2022-12-18T09:25:51.577Z,57.04
2022-12-18T09:26:56.138Z,56.36
2022-12-18T09:27:51.497Z,56.65
2022-12-18T09:28:51.552Z,56.28
2022-12-18T09:29:51.536Z,56.18
2022-12-18T09:30:51.613Z,56.24
2022-12-18T09:31:51.499Z,56.78
2022-12-18T09:32:51.493Z,56.78
2022-12-18T09:33:51.549Z,57.19
2022-12-18T09:34:51.509Z,57.18
2022-12-18T09:35:51.538Z,56.78
2022-12-18T09:36:51.557Z,56.74
2022-12-18T09:37:51.555Z,56.74
2022-12-18T09:38:51.552Z,56.69
2022-12-18T09:39:51.578Z,56.38
2022-12-18T09:40:51.544Z,56.40
2022-12-18T09:41:52.185Z,56.40
2022-12-18T09:42:51.551Z,56.26
2022-12-18T09:43:51.611Z,56.29
2022-12-18T09:44:51.631Z,56.29
2022-12-18T09:45:51.575Z,56.08
2022-12-18T09:46:51.625Z,55.91
2022-12-18T09:47:51.575Z,55.94
2022-12-18T09:48:51.601Z,55.75
2022-12-18T09:49:51.589Z,55.76
2022-12-18T09:50:51.573Z,55.76
2022-12-18T09:51:51.622Z,55.62
2022-12-18T09:52:51.574Z,55.62
2022-12-18T09:53:51.636Z,55.31
2022-12-18T09:55:51.625Z,55.06
2022-12-18T09:56:51.633Z,55.13
2022-12-18T09:57:55.878Z,54.99
2022-12-18T09:59:51.597Z,54.93
2022-12-18T10:01:51.864Z,54.61
2022-12-18T10:02:51.779Z,54.85
2022-12-18T10:03:51.574Z,54.85
2022-12-18T10:04:51.633Z,55.05
2022-12-18T10:05:51.602Z,55.05
2022-12-18T10:07:51.622Z,54.95
2022-12-18T10:09:51.660Z,54.93
2022-12-18T10:10:51.629Z,54.95
2022-12-18T10:12:51.618Z,55.28
2022-12-18T10:13:51.614Z,55.17
2022-12-18T10:14:51.671Z,55.17
2022-12-18T10:15:51.740Z,55.03
2022-12-18T10:16:51.675Z,54.54
2022-12-18T10:17:51.673Z,54.66
2022-12-18T10:18:51.685Z,54.47
2022-12-18T10:19:51.663Z,54.47
2022-12-18T10:20:51.665Z,54.30
2022-12-18T10:21:51.642Z,54.12
2022-12-18T10:23:51.665Z,54.06
2022-12-18T10:24:51.717Z,53.98
2022-12-18T10:25:51.692Z,53.98
2022-12-18T10:27:51.636Z,54.37
2022-12-18T10:28:51.667Z,54.37
2022-12-18T10:29:51.699Z,53.93
2022-12-18T10:30:51.710Z,54.14
2022-12-18T10:33:51.700Z,54.02
2022-12-18T10:35:00.425Z,53.75
2022-12-18T10:35:51.693Z,53.81
2022-12-18T10:37:51.713Z,53.07
2022-12-18T10:38:51.642Z,53.07
2022-12-18T10:39:51.740Z,53.17
2022-12-18T10:41:51.668Z,53.30
2022-12-18T10:42:51.687Z,53.12
2022-12-18T10:43:51.699Z,53.12
2022-12-18T10:44:51.725Z,52.62
2022-12-18T10:45:51.679Z,52.62
2022-12-18T10:46:51.816Z,52.79
2022-12-18T10:47:51.745Z,52.48
2022-12-18T10:48:51.692Z,52.98
2022-12-18T10:49:51.715Z,53.11
2022-12-18T10:51:10.347Z,53.11
2022-12-18T10:51:51.672Z,53.53
2022-12-18T10:52:51.711Z,53.54
2022-12-18T10:54:51.723Z,53.42
2022-12-18T10:55:51.693Z,53.42
2022-12-18T10:56:51.696Z,53.18
2022-12-18T10:57:51.767Z,53.31
2022-12-18T10:58:51.735Z,53.11
2022-12-18T10:59:51.726Z,53.60
2022-12-18T11:00:51.736Z,53.60
2022-12-18T11:01:51.874Z,53.87
2022-12-18T11:02:52.059Z,54.29
2022-12-18T11:03:51.846Z,54.29
2022-12-18T11:04:51.774Z,53.97
2022-12-18T11:05:51.742Z,53.97
2022-12-18T11:06:51.757Z,54.26
2022-12-18T11:07:51.785Z,54.20
2022-12-18T11:08:52.038Z,55.16
2022-12-18T11:09:51.803Z,55.27
2022-12-18T11:10:51.765Z,55.27
2022-12-18T11:11:51.780Z,55.06
2022-12-18T11:12:51.755Z,54.76
2022-12-18T11:13:51.725Z,54.76
2022-12-18T11:15:51.848Z,53.78
2022-12-18T11:17:24.179Z,53.95
2022-12-18T11:17:51.768Z,53.83
2022-12-18T11:18:51.794Z,53.98
2022-12-18T11:19:51.814Z,53.84
2022-12-18T11:20:56.908Z,53.76
2022-12-18T11:21:51.748Z,53.76
2022-12-18T11:22:51.822Z,53.68
2022-12-18T11:23:51.802Z,53.68
2022-12-18T11:25:14.954Z,53.73
2022-12-18T11:26:57.798Z,53.96
2022-12-18T11:27:51.807Z,54.17
2022-12-18T11:28:51.792Z,54.17
2022-12-18T11:29:52.021Z,54.44
2022-12-18T11:30:51.867Z,55.42
2022-12-18T11:31:51.770Z,55.42
2022-12-18T11:32:51.770Z,55.43
2022-12-18T11:34:19.662Z,55.41
2022-12-18T11:34:57.358Z,55.41
2022-12-18T11:35:51.871Z,55.12
2022-12-18T11:36:51.830Z,55.43
2022-12-18T11:37:51.839Z,55.72
2022-12-18T11:38:51.863Z,56.13
2022-12-18T11:39:51.832Z,56.43
2022-12-18T11:40:51.861Z,56.37
2022-12-18T11:41:51.856Z,56.37
2022-12-18T11:42:51.840Z,56.21
2022-12-18T11:43:51.872Z,56.66
2022-12-18T11:44:51.849Z,57.02
2022-12-18T11:45:52.345Z,56.79
2022-12-18T11:46:51.957Z,56.33
2022-12-18T11:47:51.853Z,56.33
2022-12-18T11:48:51.908Z,56.33
2022-12-18T11:49:51.866Z,56.33
2022-12-18T11:50:51.851Z,55.08
2022-12-18T11:51:51.853Z,55.08
2022-12-18T11:52:57.309Z,54.94
2022-12-18T11:53:51.861Z,55.06
2022-12-18T11:54:51.897Z,54.75
2022-12-18T11:55:51.816Z,54.75
2022-12-18T11:56:51.842Z,55.04
2022-12-18T11:57:51.831Z,55.04
2022-12-18T11:58:51.924Z,54.97
2022-12-18T11:59:51.878Z,54.97
2022-12-18T12:00:51.880Z,54.95
2022-12-18T12:02:51.977Z,54.57
2022-12-18T12:03:52.007Z,54.21
2022-12-18T12:04:51.906Z,54.75
2022-12-18T12:06:51.902Z,54.87
2022-12-18T12:07:51.873Z,54.87
2022-12-18T12:08:51.900Z,54.98
2022-12-18T12:09:51.862Z,55.47
2022-12-18T12:10:51.898Z,55.42
2022-12-18T12:11:51.959Z,55.31
2022-12-18T12:12:51.878Z,55.31
2022-12-18T12:13:51.904Z,55.27
2022-12-18T12:14:51.879Z,55.18
2022-12-18T12:15:51.940Z,55.09
2022-12-18T12:16:51.923Z,54.18
2022-12-18T12:17:51.890Z,54.67
2022-12-18T12:18:51.927Z,54.67
2022-12-18T12:19:51.924Z,54.62
2022-12-18T12:21:51.943Z,54.70
2022-12-18T12:22:52.533Z,54.83
2022-12-18T12:24:51.936Z,55.45
2022-12-18T12:25:51.936Z,55.45
2022-12-18T12:26:51.943Z,55.06
2022-12-18T12:27:51.966Z,54.96
2022-12-18T12:28:51.969Z,55.21
2022-12-18T12:30:51.918Z,55.08
2022-12-18T12:31:52.036Z,54.73
2022-12-18T12:32:51.943Z,54.82
2022-12-18T12:34:57.667Z,55.06
2022-12-18T12:35:51.935Z,55.55
2022-12-18T12:36:52.032Z,55.31
2022-12-18T12:37:51.962Z,55.17
2022-12-18T12:39:52.007Z,55.57
2022-12-18T12:40:57.083Z,55.23
2022-12-18T12:41:51.978Z,55.23
2022-12-18T12:42:52.025Z,55.85
2022-12-18T12:43:52.189Z,55.85
2022-12-18T12:44:56.424Z,55.75
2022-12-18T12:45:52.063Z,55.75
2022-12-18T12:46:51.993Z,55.88
2022-12-18T12:47:52.049Z,55.48
2022-12-18T12:48:51.956Z,55.48
2022-12-18T12:49:52.036Z,55.34
2022-12-18T12:50:51.945Z,55.34
2022-12-18T12:51:52.012Z,55.13
2022-12-18T12:52:52.008Z,54.67
2022-12-18T12:53:51.977Z,54.67
2022-12-18T12:54:52.013Z,54.84
2022-12-18T12:55:52.010Z,54.88
2022-12-18T12:56:51.991Z,54.39
2022-12-18T12:57:52.006Z,54.69
2022-12-18T12:58:52.023Z,54.69
2022-12-18T13:00:52.159Z,54.24
2022-12-18T13:01:52.132Z,54.24
2022-12-18T13:02:52.059Z,54.64
2022-12-18T13:03:52.026Z,54.64
2022-12-18T13:04:52.029Z,54.36
2022-12-18T13:05:52.032Z,54.70
2022-12-18T13:06:52.042Z,54.70
2022-12-18T13:07:52.074Z,54.93
2022-12-18T13:08:52.048Z,54.67
2022-12-18T13:09:52.047Z,54.67
2022-12-18T13:10:52.079Z,54.55
2022-12-18T13:11:57.811Z,54.55
2022-12-18T13:12:52.063Z,54.45
2022-12-18T13:13:52.062Z,54.45
2022-12-18T13:14:52.081Z,54.70
2022-12-18T13:15:52.098Z,54.88
2022-12-18T13:16:52.020Z,54.88
2022-12-18T13:17:52.107Z,54.62
2022-12-18T13:18:52.027Z,54.62
2022-12-18T13:19:52.034Z,54.42
2022-12-18T13:20:54.399Z,54.33
2022-12-18T13:21:52.091Z,54.32
2022-12-18T13:22:52.076Z,54.32
2022-12-18T13:23:52.074Z,54.31
2022-12-18T13:24:52.061Z,54.12
2022-12-18T13:25:52.118Z,54.06
2022-12-18T13:26:52.044Z,54.01
2022-12-18T13:27:52.131Z,53.46
2022-12-18T13:28:52.055Z,53.46
2022-12-18T13:29:52.056Z,54.23
2022-12-18T13:30:55.626Z,53.93
2022-12-18T13:31:52.096Z,53.93
2022-12-18T13:32:52.147Z,54.17
2022-12-18T13:34:52.060Z,54.70
2022-12-18T13:35:52.163Z,55.47
2022-12-18T13:36:53.142Z,55.33
2022-12-18T13:37:52.110Z,55.33
2022-12-18T13:38:52.139Z,55.06
2022-12-18T13:39:52.085Z,55.54
2022-12-18T13:41:52.122Z,55.33
2022-12-18T13:42:52.091Z,55.02
2022-12-18T13:43:52.151Z,55.54
2022-12-18T13:44:52.130Z,55.54
2022-12-18T13:45:52.155Z,55.59
2022-12-18T13:46:52.111Z,55.92
2022-12-18T13:47:52.105Z,55.92
2022-12-18T13:48:52.185Z,56.30
2022-12-18T13:50:52.146Z,57.39
2022-12-18T13:51:52.139Z,57.39
2022-12-18T13:52:52.133Z,56.88
2022-12-18T13:53:52.175Z,56.74
2022-12-18T13:54:52.159Z,56.98
2022-12-18T13:55:52.151Z,57.13
2022-12-18T13:56:52.144Z,57.27
2022-12-18T13:57:52.149Z,57.13
2022-12-18T13:58:52.201Z,56.50
2022-12-18T13:59:52.159Z,56.50
2022-12-18T14:00:52.322Z,56.21
2022-12-18T14:01:52.367Z,56.21
2022-12-18T14:02:52.302Z,56.26
2022-12-18T14:04:52.176Z,56.03
2022-12-18T14:05:52.203Z,55.62
2022-12-18T14:07:52.142Z,55.50
2022-12-18T14:08:52.202Z,55.59
2022-12-18T14:09:55.485Z,55.59
2022-12-18T14:10:52.253Z,55.35
2022-12-18T14:11:52.200Z,55.35
2022-12-18T14:12:52.204Z,55.45
2022-12-18T14:14:54.934Z,54.96
2022-12-18T14:15:52.232Z,54.84
2022-12-18T14:16:52.265Z,54.99
2022-12-18T14:17:52.187Z,55.13
2022-12-18T14:18:52.241Z,55.45
2022-12-18T14:19:52.191Z,55.34
2022-12-18T14:20:52.840Z,55.36
2022-12-18T14:21:52.213Z,55.36
2022-12-18T14:22:52.174Z,55.31
2022-12-18T14:23:52.202Z,55.32
2022-12-18T14:24:52.199Z,55.37
2022-12-18T14:25:52.217Z,55.37
2022-12-18T14:26:52.202Z,55.30
2022-12-18T14:27:52.218Z,55.63
2022-12-18T14:28:52.264Z,55.61
2022-12-18T14:29:52.235Z,56.08
2022-12-18T14:30:52.295Z,55.94
2022-12-18T14:31:52.275Z,55.84
2022-12-18T14:32:52.230Z,55.84
2022-12-18T14:33:52.284Z,56.03
2022-12-18T14:34:52.193Z,56.03
2022-12-18T14:35:52.242Z,56.06
2022-12-18T14:36:52.290Z,56.43
2022-12-18T14:37:52.242Z,56.43
2022-12-18T14:38:52.294Z,56.37
2022-12-18T14:39:52.261Z,56.33
2022-12-18T14:40:52.320Z,56.12
2022-12-18T14:41:52.247Z,56.23
2022-12-18T14:42:52.277Z,55.93
2022-12-18T14:43:52.295Z,56.20
2022-12-18T14:45:13.358Z,56.20
2022-12-18T14:45:52.246Z,56.84
2022-12-18T14:46:52.305Z,57.62
2022-12-18T14:47:52.265Z,58.01
2022-12-18T14:48:52.300Z,58.20
2022-12-18T14:49:52.280Z,58.02
2022-12-18T14:50:53.615Z,58.33
2022-12-18T14:52:52.276Z,58.10
2022-12-18T14:53:54.499Z,58.02
2022-12-18T14:54:52.294Z,58.49
2022-12-18T14:55:52.302Z,58.81
2022-12-18T14:56:52.332Z,58.81